Daniel Island, South Carolina
Current Conditions -  °F | °C
As of 9:55 AM on Monday 22 Dec 2014 (Local Time) from KLRO Reporting Station
Haze Haze  
Wind Chill: 43°   Ceiling: 300
Heat Index: 46°   Visibility: 1mi
Dew Point: 46°   Wind: 7mph
Humidity: 100%   Direction: 360°N
Pressure: 30.09"   Gusts: NA
Location:  32.9577°N, 79.8822°W
Report Text: KLRO 221455Z AUTO 36006KT 1SM BR OVC003 08/08 A3009 RMK AO2
Loading
Personal Weather Stations






























Interactive Weather Map New forecast layout! Learn more

10-Day Weather Forecast

Advertisements
Track Severe Weather on mobile